Time;durP1;ratioP1;P1;durP2;ratioP2;P2;SDS_P1;SDS_P2;PMS_P1;PMS_P2;Temp;Humidity;BMP_temperature;BMP_pressure;BME280_temperature;BME280_humidity;BME280_pressure;Samples;Min_cycle;Max_cycle;Signal;HPM_P1;HPM_P2
2023/03/24 00:02:07;;;;;;;;;;;12.00;99.90;;;;;;5051691;28;19939;-70
2023/03/24 00:04:34;;;;;;;;;;;12.00;99.90;;;;;;5051609;28;19915;-70
2023/03/24 00:07:03;;;;;;;;;;;11.90;99.90;;;;;;5052068;28;19971;-70
2023/03/24 00:09:29;;;;;;;;;;;11.90;99.90;;;;;;5051802;28;20024;-70
2023/03/24 00:11:55;;;;;;;;;;;11.90;99.90;;;;;;5052152;28;20290;-70
2023/03/24 00:14:22;;;;;;;;;;;11.90;99.90;;;;;;5051757;28;19909;-70
2023/03/24 00:16:49;;;;;;;;;;;11.80;99.90;;;;;;5051951;28;20098;-70
2023/03/24 00:19:15;;;;;;;;;;;11.80;99.90;;;;;;5051842;28;19909;-70
2023/03/24 00:21:41;;;;;;;;;;;12.00;99.90;;;;;;5051746;28;19909;-70
2023/03/24 00:24:07;;;;;;;;;;;11.90;99.90;;;;;;5051107;28;19927;-74
2023/03/24 00:26:33;;;;;;;;;;;11.90;99.90;;;;;;5051565;28;20345;-70
2023/03/24 00:29:00;;;;;;;;;;;11.90;99.90;;;;;;5053917;28;20369;-70
2023/03/24 00:31:26;;;;;;;;;;;11.90;99.90;;;;;;5055510;28;19913;-70
2023/03/24 00:33:52;;;;;;;;;;;11.90;99.90;;;;;;5052880;28;19909;-70
2023/03/24 00:36:19;;;;;;;;;;;11.90;99.90;;;;;;5054092;28;19909;-69
2023/03/24 00:38:47;;;;;;;;;;;11.90;99.90;;;;;;5053767;28;19912;-69
2023/03/24 00:41:13;;;;;;;;;;;11.90;99.90;;;;;;5053435;28;20007;-69
2023/03/24 00:43:39;;;;;;;;;;;12.00;99.90;;;;;;5053833;28;19916;-70
2023/03/24 00:46:09;;;;;;;;;;;12.00;99.90;;;;;;5053939;28;19913;-69
2023/03/24 00:48:37;;;;;;;;;;;12.10;99.90;;;;;;5053994;28;19909;-70
2023/03/24 00:51:03;;;;;;;;;;;12.00;99.90;;;;;;5054110;28;19909;-70
2023/03/24 00:53:29;;;;;;;;;;;11.90;99.90;;;;;;5053578;28;19921;-69
2023/03/24 00:55:55;;;;;;;;;;;12.00;99.90;;;;;;5053899;28;20275;-70
2023/03/24 00:58:21;;;;;;;;;;;11.90;99.90;;;;;;5053537;28;19913;-70
2023/03/24 01:00:48;;;;;;;;;;;11.90;99.90;;;;;;5053547;28;19913;-70
2023/03/24 01:03:14;;;;;;;;;;;11.90;99.90;;;;;;5053942;28;20011;-69
2023/03/24 01:05:40;;;;;;;;;;;11.90;99.90;;;;;;5054617;28;19970;-70
2023/03/24 01:08:06;;;;;;;;;;;11.90;99.90;;;;;;5054481;28;19915;-69
2023/03/24 01:10:33;;;;;;;;;;;11.90;99.90;;;;;;5054686;28;19909;-70
2023/03/24 01:12:59;;;;;;;;;;;11.80;99.90;;;;;;5055060;28;19919;-70
2023/03/24 01:15:27;;;;;;;;;;;11.80;99.90;;;;;;5055349;28;19909;-70
2023/03/24 01:17:53;;;;;;;;;;;11.90;99.90;;;;;;5055189;28;19959;-75
2023/03/24 01:20:19;;;;;;;;;;;11.90;99.90;;;;;;5054635;28;19943;-71
2023/03/24 01:22:45;;;;;;;;;;;11.90;99.90;;;;;;5054489;28;19988;-70
2023/03/24 01:25:12;;;;;;;;;;;11.80;99.90;;;;;;5054901;28;20378;-71
2023/03/24 01:27:38;;;;;;;;;;;11.70;99.90;;;;;;5053467;28;19916;-70
2023/03/24 01:30:05;;;;;;;;;;;11.70;99.90;;;;;;5054601;28;19912;-70
2023/03/24 01:32:31;;;;;;;;;;;11.60;99.90;;;;;;5054495;28;19916;-70
2023/03/24 01:34:56;;;;;;;;;;;11.60;99.90;;;;;;5054345;28;20341;-70
2023/03/24 01:37:22;;;;;;;;;;;11.50;99.90;;;;;;5054603;28;19913;-75
2023/03/24 01:39:49;;;;;;;;;;;11.50;99.90;;;;;;5052925;28;19909;-70
2023/03/24 01:42:19;;;;;;;;;;;11.50;99.90;;;;;;5054289;28;19920;-70
2023/03/24 01:44:46;;;;;;;;;;;11.40;99.90;;;;;;5054623;28;20279;-70
2023/03/24 01:47:12;;;;;;;;;;;11.40;99.90;;;;;;5053943;28;20396;-70
2023/03/24 01:49:52;;;;;;;;;;;11.50;99.90;;;;;;5054785;28;19909;-70
2023/03/24 01:52:21;;;;;;;;;;;11.40;99.90;;;;;;5054111;28;19995;-70
2023/03/24 01:54:49;;;;;;;;;;;11.40;99.90;;;;;;5053775;28;19931;-70
2023/03/24 01:57:15;;;;;;;;;;;11.40;99.90;;;;;;5053258;28;19928;-70
2023/03/24 01:59:44;;;;;;;;;;;11.40;99.90;;;;;;5053118;28;19931;-70
2023/03/24 02:02:12;;;;;;;;;;;11.50;99.90;;;;;;5052524;28;19913;-70
2023/03/24 02:04:40;;;;;;;;;;;11.50;99.90;;;;;;5052650;28;19992;-70
2023/03/24 02:07:10;;;;;;;;;;;11.50;99.90;;;;;;5052824;28;19909;-70
2023/03/24 02:09:36;;;;;;;;;;;11.50;99.90;;;;;;5053779;28;20402;-70
2023/03/24 02:12:01;;;;;;;;;;;11.50;99.90;;;;;;5052001;28;19909;-70
2023/03/24 02:14:28;;;;;;;;;;;11.50;99.90;;;;;;5053371;28;19912;-70
2023/03/24 02:16:56;;;;;;;;;;;11.40;99.90;;;;;;5053532;28;19909;-70
2023/03/24 02:19:25;;;;;;;;;;;11.40;99.90;;;;;;5052973;28;19909;-70
2023/03/24 02:22:14;;;;;;;;;;;11.30;99.90;;;;;;5053495;28;19908;-70
2023/03/24 02:24:58;;;;;;;;;;;11.20;99.90;;;;;;5042915;28;19917;-70
2023/03/24 02:27:28;;;;;;;;;;;11.20;99.90;;;;;;5053473;28;19939;-71
2023/03/24 02:29:57;;;;;;;;;;;11.20;99.90;;;;;;5053660;28;20363;-75
2023/03/24 02:32:23;;;;;;;;;;;11.10;99.90;;;;;;5053363;28;19954;-70
2023/03/24 02:35:15;;;;;;;;;;;11.10;99.90;;;;;;5053587;28;20317;-70
2023/03/24 02:37:41;;;;;;;;;;;11.00;99.90;;;;;;5051914;28;19990;-69
2023/03/24 02:40:07;;;;;;;;;;;11.00;99.90;;;;;;5053373;28;19909;-70
2023/03/24 02:42:33;;;;;;;;;;;11.00;99.90;;;;;;5052889;28;19908;-70
2023/03/24 02:45:07;;;;;;;;;;;11.10;99.90;;;;;;5053428;28;20264;-69
2023/03/24 02:47:48;;;;;;;;;;;11.10;99.90;;;;;;5053536;28;19976;-69
2023/03/24 02:50:19;;;;;;;;;;;11.10;99.90;;;;;;5052973;28;19983;-70
2023/03/24 02:53:08;;;;;;;;;;;11.10;99.90;;;;;;5053013;28;19908;-70
2023/03/24 02:55:43;;;;;;;;;;;11.20;99.90;;;;;;5052790;28;20377;-69
2023/03/24 02:58:22;;;;;;;;;;;11.30;99.90;;;;;;5052893;28;19912;-69
2023/03/24 03:00:51;;;;;;;;;;;11.20;99.90;;;;;;5052674;28;19924;-69
2023/03/24 03:03:22;;;;;;;;;;;11.20;99.90;;;;;;5052857;28;19909;-70
2023/03/24 03:05:57;;;;;;;;;;;11.20;99.90;;;;;;5051885;28;19909;-69
2023/03/24 03:08:24;;;;;;;;;;;11.30;99.90;;;;;;5051926;28;19949;-69
2023/03/24 03:10:51;;;;;;;;;;;11.20;99.90;;;;;;5052628;28;19974;-70
2023/03/24 03:13:26;;;;;;;;;;;11.20;99.90;;;;;;5052987;28;19916;-70
2023/03/24 03:15:54;;;;;;;;;;;11.20;99.90;;;;;;5052876;28;20078;-70
2023/03/24 03:18:32;;;;;;;;;;;11.20;99.90;;;;;;5052791;28;19912;-70
2023/03/24 03:21:00;;;;;;;;;;;11.20;99.90;;;;;;5052346;28;19909;-70
2023/03/24 03:23:29;;;;;;;;;;;11.20;99.90;;;;;;5051308;28;19917;-69
2023/03/24 03:26:04;;;;;;;;;;;11.10;99.90;;;;;;5052996;28;19913;-70
2023/03/24 03:28:31;;;;;;;;;;;11.10;99.90;;;;;;5052856;28;20169;-70
2023/03/24 03:31:00;;;;;;;;;;;11.10;99.90;;;;;;5052568;28;19916;-70
2023/03/24 03:33:30;;;;;;;;;;;11.20;99.90;;;;;;5052406;28;20370;-70
2023/03/24 03:36:05;;;;;;;;;;;11.10;99.90;;;;;;5052282;28;19920;-69
2023/03/24 03:38:37;;;;;;;;;;;11.00;99.90;;;;;;5051952;28;19913;-70
2023/03/24 03:41:03;;;;;;;;;;;11.00;99.90;;;;;;5050679;28;19909;-70
2023/03/24 03:43:30;;;;;;;;;;;10.90;99.90;;;;;;5051085;28;19909;-70
2023/03/24 03:45:56;;;;;;;;;;;11.00;99.90;;;;;;5052066;28;19988;-69
2023/03/24 03:48:25;;;;;;;;;;;10.90;99.90;;;;;;5052117;28;19908;-70
2023/03/24 03:50:51;;;;;;;;;;;10.90;99.90;;;;;;5051878;28;19908;-70
2023/03/24 03:53:20;;;;;;;;;;;10.90;99.90;;;;;;5051045;28;19909;-70
2023/03/24 03:55:46;;;;;;;;;;;10.80;99.90;;;;;;5052147;28;19909;-70
2023/03/24 03:58:11;;;;;;;;;;;10.90;99.90;;;;;;5052198;28;20461;-70
2023/03/24 04:00:38;;;;;;;;;;;10.80;99.90;;;;;;5052075;28;19909;-70
2023/03/24 04:03:07;;;;;;;;;;;10.90;99.90;;;;;;5052955;28;19909;-70
2023/03/24 04:05:41;;;;;;;;;;;10.90;99.90;;;;;;5055599;28;19920;-70
2023/03/24 04:08:12;;;;;;;;;;;11.00;99.90;;;;;;5056335;28;19961;-70
2023/03/24 04:10:54;;;;;;;;;;;11.10;99.90;;;;;;5054590;28;19955;-70
2023/03/24 04:13:27;;;;;;;;;;;11.00;99.90;;;;;;5056290;28;19948;-71
2023/03/24 04:16:11;;;;;;;;;;;11.00;99.90;;;;;;5055946;28;19908;-75
2023/03/24 04:18:46;;;;;;;;;;;11.10;99.90;;;;;;5055858;28;19913;-70
2023/03/24 04:21:15;;;;;;;;;;;11.00;99.90;;;;;;5055719;28;19909;-70
2023/03/24 04:23:48;;;;;;;;;;;11.10;99.90;;;;;;5055229;28;19917;-69
2023/03/24 04:26:26;;;;;;;;;;;11.00;99.90;;;;;;5055433;28;19912;-70
2023/03/24 04:28:59;;;;;;;;;;;11.00;99.90;;;;;;5055725;28;19977;-69
2023/03/24 04:31:28;;;;;;;;;;;11.00;99.90;;;;;;5055065;28;19931;-70
2023/03/24 04:34:02;;;;;;;;;;;11.00;99.90;;;;;;5054888;28;20131;-69
2023/03/24 04:36:31;;;;;;;;;;;11.10;99.90;;;;;;5054719;28;19909;-69
2023/03/24 04:38:57;;;;;;;;;;;11.10;99.90;;;;;;5052353;28;20000;-70
2023/03/24 04:41:25;;;;;;;;;;;11.20;99.90;;;;;;5053365;28;20353;-69
2023/03/24 04:43:51;;;;;;;;;;;11.10;99.90;;;;;;5053484;28;20275;-70
2023/03/24 04:46:17;;;;;;;;;;;11.10;99.90;;;;;;5053572;28;20409;-70
2023/03/24 04:48:49;;;;;;;;;;;11.00;99.90;;;;;;5053479;28;20004;-69
2023/03/24 04:51:15;;;;;;;;;;;11.00;99.90;;;;;;5053224;28;20329;-69
2023/03/24 04:53:41;;;;;;;;;;;11.00;99.90;;;;;;5051923;28;19915;-70
2023/03/24 04:56:25;;;;;;;;;;;11.00;99.90;;;;;;5053825;28;19996;-70
2023/03/24 04:58:50;;;;;;;;;;;11.00;99.90;;;;;;5053249;28;19952;-69
2023/03/24 05:01:16;;;;;;;;;;;11.00;99.90;;;;;;5053002;28;20251;-69
2023/03/24 05:03:44;;;;;;;;;;;11.00;99.90;;;;;;5053244;28;19912;-69
2023/03/24 05:06:11;;;;;;;;;;;11.00;99.90;;;;;;5052986;28;19909;-69
2023/03/24 05:08:37;;;;;;;;;;;11.00;99.90;;;;;;5053191;28;20003;-70
2023/03/24 05:11:03;;;;;;;;;;;10.90;99.90;;;;;;5054416;28;20025;-69
2023/03/24 05:13:28;;;;;;;;;;;10.90;99.90;;;;;;5055336;28;20286;-70
2023/03/24 05:15:54;;;;;;;;;;;10.90;99.90;;;;;;5055254;28;19913;-70
2023/03/24 05:18:20;;;;;;;;;;;10.90;99.90;;;;;;5055391;28;19917;-69
2023/03/24 05:20:45;;;;;;;;;;;11.00;99.90;;;;;;5053138;28;20338;-70
2023/03/24 05:23:11;;;;;;;;;;;10.90;99.90;;;;;;5054570;28;19963;-70
2023/03/24 05:25:36;;;;;;;;;;;10.90;99.90;;;;;;5054319;28;19909;-70
2023/03/24 05:28:02;;;;;;;;;;;10.90;99.90;;;;;;5054779;28;19909;-69
2023/03/24 05:30:28;;;;;;;;;;;10.90;99.90;;;;;;5054714;28;20063;-70
2023/03/24 05:32:54;;;;;;;;;;;11.00;99.90;;;;;;5054467;28;19913;-69
2023/03/24 05:35:20;;;;;;;;;;;11.00;99.90;;;;;;5054185;28;19908;-70
2023/03/24 05:37:45;;;;;;;;;;;11.00;99.90;;;;;;5054383;28;19954;-70
2023/03/24 05:40:11;;;;;;;;;;;11.00;99.90;;;;;;5054692;28;20007;-70
2023/03/24 05:42:36;;;;;;;;;;;11.00;99.90;;;;;;5053780;28;19915;-70
2023/03/24 05:45:03;;;;;;;;;;;11.00;99.90;;;;;;5054199;28;19915;-69
2023/03/24 05:47:28;;;;;;;;;;;11.00;99.90;;;;;;5054370;28;19912;-70
2023/03/24 05:49:54;;;;;;;;;;;11.00;99.90;;;;;;5054021;28;19913;-70
2023/03/24 05:52:20;;;;;;;;;;;11.00;99.90;;;;;;5053595;28;19991;-70
2023/03/24 05:54:48;;;;;;;;;;;11.10;99.90;;;;;;5054272;28;19955;-70
2023/03/24 05:57:14;;;;;;;;;;;11.10;99.90;;;;;;5054237;28;19912;-70
2023/03/24 05:59:40;;;;;;;;;;;11.20;99.90;;;;;;5054211;28;19996;-70
2023/03/24 06:02:06;;;;;;;;;;;11.20;99.90;;;;;;5053495;28;20343;-70
2023/03/24 06:04:32;;;;;;;;;;;11.30;99.90;;;;;;5053138;28;19951;-70
2023/03/24 06:06:58;;;;;;;;;;;11.30;99.90;;;;;;5052495;28;19908;-70
2023/03/24 06:09:36;;;;;;;;;;;11.30;99.90;;;;;;5053518;28;19909;-70
2023/03/24 06:12:02;;;;;;;;;;;11.40;99.90;;;;;;5053208;28;19913;-73
2023/03/24 06:14:28;;;;;;;;;;;11.40;99.90;;;;;;5053436;28;19908;-70
2023/03/24 06:16:58;;;;;;;;;;;11.50;99.90;;;;;;5053819;28;19992;-70
2023/03/24 06:19:29;;;;;;;;;;;11.60;99.90;;;;;;5052840;28;19913;-70
2023/03/24 06:21:59;;;;;;;;;;;11.70;99.90;;;;;;5053242;28;19917;-70
2023/03/24 06:24:26;;;;;;;;;;;11.90;99.90;;;;;;5054164;28;20378;-70
2023/03/24 06:26:51;;;;;;;;;;;11.90;99.90;;;;;;5052938;28;19935;-70
2023/03/24 06:29:17;;;;;;;;;;;11.90;99.90;;;;;;5053475;28;19909;-70
2023/03/24 06:31:44;;;;;;;;;;;12.00;99.90;;;;;;5053928;28;19920;-70
2023/03/24 06:34:10;;;;;;;;;;;12.00;99.90;;;;;;5052373;28;20290;-70
2023/03/24 06:36:36;;;;;;;;;;;12.10;99.90;;;;;;5054413;28;19991;-70
2023/03/24 06:39:04;;;;;;;;;;;12.10;99.90;;;;;;5053235;28;19956;-70
2023/03/24 06:41:30;;;;;;;;;;;12.20;99.90;;;;;;5051533;28;19958;-70
2023/03/24 06:43:56;;;;;;;;;;;12.30;99.90;;;;;;5053435;28;19909;-70
2023/03/24 06:46:22;;;;;;;;;;;12.30;99.90;;;;;;5053315;28;19936;-70
2023/03/24 06:48:48;;;;;;;;;;;12.40;99.90;;;;;;5053121;28;19913;-70
2023/03/24 06:51:13;;;;;;;;;;;12.50;99.90;;;;;;5051643;28;19920;-70
2023/03/24 06:53:40;;;;;;;;;;;12.40;99.90;;;;;;5053366;28;19968;-70
2023/03/24 06:56:06;;;;;;;;;;;12.50;99.90;;;;;;5053387;28;19920;-70
2023/03/24 06:58:32;;;;;;;;;;;12.60;99.90;;;;;;5053115;28;19913;-71
2023/03/24 07:00:59;;;;;;;;;;;12.70;99.90;;;;;;5053277;28;19962;-71
2023/03/24 07:03:25;;;;;;;;;;;12.80;99.90;;;;;;5052906;28;20052;-70
2023/03/24 07:05:51;;;;;;;;;;;13.00;99.90;;;;;;5052858;28;19909;-71
2023/03/24 07:08:16;;;;;;;;;;;13.10;99.90;;;;;;5052786;28;19916;-71
2023/03/24 07:10:42;;;;;;;;;;;13.20;99.90;;;;;;5052718;28;19961;-70
2023/03/24 07:13:08;;;;;;;;;;;13.30;99.90;;;;;;5050571;28;19934;-70
2023/03/24 07:15:34;;;;;;;;;;;13.40;99.90;;;;;;5051977;28;20298;-70
2023/03/24 07:18:00;;;;;;;;;;;13.40;99.90;;;;;;5051569;28;19971;-71
2023/03/24 07:20:25;;;;;;;;;;;13.50;99.90;;;;;;5052191;28;20098;-70
2023/03/24 07:22:54;;;;;;;;;;;13.70;99.90;;;;;;5051562;28;19954;-71
2023/03/24 07:25:20;;;;;;;;;;;13.80;99.90;;;;;;5051885;28;19948;-71
2023/03/24 07:27:45;;;;;;;;;;;13.80;99.90;;;;;;5052194;28;19952;-70
2023/03/24 07:30:12;;;;;;;;;;;13.90;99.90;;;;;;5051867;28;19913;-70
2023/03/24 07:32:38;;;;;;;;;;;14.00;99.90;;;;;;5052146;28;19909;-70
2023/03/24 07:35:05;;;;;;;;;;;14.10;99.90;;;;;;5052162;28;19909;-70
2023/03/24 07:37:31;;;;;;;;;;;14.20;99.90;;;;;;5053725;28;19919;-70
2023/03/24 07:39:57;;;;;;;;;;;14.20;99.90;;;;;;5057036;28;20003;-71
2023/03/24 07:42:23;;;;;;;;;;;14.30;99.90;;;;;;5056035;28;19909;-71
2023/03/24 07:44:49;;;;;;;;;;;14.30;99.90;;;;;;5056440;28;19916;-71
2023/03/24 07:47:15;;;;;;;;;;;14.40;99.90;;;;;;5056298;28;20278;-71
2023/03/24 07:49:40;;;;;;;;;;;14.40;99.90;;;;;;5055880;28;20286;-71
2023/03/24 07:52:06;;;;;;;;;;;14.40;99.90;;;;;;5054521;28;20074;-71
2023/03/24 07:54:33;;;;;;;;;;;14.40;99.90;;;;;;5054088;28;19909;-72
2023/03/24 07:56:59;;;;;;;;;;;14.40;99.90;;;;;;5055737;28;20406;-71
2023/03/24 07:59:24;;;;;;;;;;;14.50;99.90;;;;;;5055904;28;19923;-71
2023/03/24 08:01:50;;;;;;;;;;;14.50;99.90;;;;;;5055196;28;20354;-70
2023/03/24 08:04:16;;;;;;;;;;;14.50;99.90;;;;;;5055628;28;20337;-71
2023/03/24 08:06:42;;;;;;;;;;;14.60;99.90;;;;;;5056481;28;19919;-70
2023/03/24 08:09:08;;;;;;;;;;;14.70;99.90;;;;;;5056523;28;19909;-71
2023/03/24 08:11:34;;;;;;;;;;;14.80;99.90;;;;;;5055850;28;19909;-71
2023/03/24 08:14:00;;;;;;;;;;;14.90;99.90;;;;;;5055931;28;19909;-71
2023/03/24 08:16:26;;;;;;;;;;;14.90;99.90;;;;;;5055823;28;19909;-72
2023/03/24 08:18:51;;;;;;;;;;;15.00;99.90;;;;;;5056500;28;20286;-71
2023/03/24 08:21:17;;;;;;;;;;;15.00;99.90;;;;;;5055817;28;19939;-71
2023/03/24 08:23:43;;;;;;;;;;;15.10;99.90;;;;;;5055870;28;19921;-71
2023/03/24 08:26:11;;;;;;;;;;;15.10;99.90;;;;;;5055952;28;19929;-71
2023/03/24 08:28:37;;;;;;;;;;;15.10;99.90;;;;;;5055211;28;19916;-71
2023/03/24 08:31:03;;;;;;;;;;;15.20;99.90;;;;;;5055612;28;19909;-71
2023/03/24 08:33:29;;;;;;;;;;;15.30;99.90;;;;;;5055409;28;20595;-73
2023/03/24 08:35:59;;;;;;;;;;;15.30;99.90;;;;;;5055637;28;19913;-70
2023/03/24 08:38:29;;;;;;;;;;;15.30;99.90;;;;;;5054097;28;19974;-71
2023/03/24 08:40:57;;;;;;;;;;;15.30;99.90;;;;;;5054134;28;19920;-71
2023/03/24 08:43:23;;;;;;;;;;;15.30;99.90;;;;;;5055550;28;19918;-71
2023/03/24 08:45:49;;;;;;;;;;;15.30;99.90;;;;;;5055703;28;19913;-74
2023/03/24 08:48:14;;;;;;;;;;;15.30;99.90;;;;;;5053764;28;19913;-71
2023/03/24 08:50:40;;;;;;;;;;;15.30;99.90;;;;;;5055236;28;19916;-71
2023/03/24 08:53:06;;;;;;;;;;;15.30;99.90;;;;;;5055528;28;19909;-71
2023/03/24 08:55:32;;;;;;;;;;;15.30;99.90;;;;;;5055641;28;19931;-71
2023/03/24 08:57:58;;;;;;;;;;;15.30;99.90;;;;;;5055068;28;20354;-71
2023/03/24 09:00:24;;;;;;;;;;;15.40;99.90;;;;;;5055715;28;19913;-71
2023/03/24 09:02:51;;;;;;;;;;;15.40;99.90;;;;;;5055363;28;20011;-71
2023/03/24 09:05:18;;;;;;;;;;;15.50;99.90;;;;;;5055167;28;19909;-71
2023/03/24 09:07:44;;;;;;;;;;;15.50;99.90;;;;;;5055673;28;20398;-71
2023/03/24 09:10:10;;;;;;;;;;;15.50;99.90;;;;;;5055296;28;19917;-70
2023/03/24 09:12:37;;;;;;;;;;;15.50;99.90;;;;;;5055443;28;19989;-73
2023/03/24 09:15:03;;;;;;;;;;;15.40;99.90;;;;;;5055341;28;19915;-71
2023/03/24 09:17:29;;;;;;;;;;;15.40;99.90;;;;;;5055250;28;19920;-71
2023/03/24 09:19:55;;;;;;;;;;;15.40;99.90;;;;;;5055024;28;19909;-71
2023/03/24 09:22:20;;;;;;;;;;;15.40;99.90;;;;;;5054911;28;19916;-71
2023/03/24 09:24:48;;;;;;;;;;;15.40;99.90;;;;;;5053928;28;19924;-71
2023/03/24 09:27:14;;;;;;;;;;;15.40;99.90;;;;;;5055213;28;19998;-71
2023/03/24 09:29:39;;;;;;;;;;;15.40;99.90;;;;;;5054896;28;19915;-71
2023/03/24 09:32:06;;;;;;;;;;;15.30;99.90;;;;;;5055058;28;20289;-70
2023/03/24 09:34:32;;;;;;;;;;;15.30;99.90;;;;;;5055118;28;19916;-71
2023/03/24 09:37:01;;;;;;;;;;;15.40;99.90;;;;;;5053951;28;19944;-71
2023/03/24 09:39:27;;;;;;;;;;;15.40;99.90;;;;;;5055219;28;19955;-71
2023/03/24 09:41:54;;;;;;;;;;;15.50;99.90;;;;;;5054998;28;19909;-71
2023/03/24 09:44:24;;;;;;;;;;;15.50;99.90;;;;;;5053885;28;19991;-71
2023/03/24 09:46:52;;;;;;;;;;;15.50;99.90;;;;;;5055463;28;19996;-71
2023/03/24 09:49:22;;;;;;;;;;;15.70;99.90;;;;;;5054554;28;19948;-71
2023/03/24 09:51:49;;;;;;;;;;;15.70;99.90;;;;;;5054319;28;19947;-70
2023/03/24 09:54:27;;;;;;;;;;;15.70;99.90;;;;;;5054286;28;19958;-71
2023/03/24 09:56:54;;;;;;;;;;;15.80;99.90;;;;;;5054766;28;19962;-71
2023/03/24 09:59:23;;;;;;;;;;;15.80;99.90;;;;;;5054762;28;19997;-71
2023/03/24 10:01:49;;;;;;;;;;;15.90;99.90;;;;;;5053671;28;19955;-70
2023/03/24 10:04:19;;;;;;;;;;;15.90;99.90;;;;;;5054920;28;19935;-71
2023/03/24 10:06:47;;;;;;;;;;;15.80;99.90;;;;;;5054380;28;19940;-71
2023/03/24 10:09:33;;;;;;;;;;;15.80;99.90;;;;;;5052790;28;19908;-71
2023/03/24 10:12:14;;;;;;;;;;;15.70;99.90;;;;;;5050436;28;20374;-71
2023/03/24 10:14:39;;;;;;;;;;;15.60;99.90;;;;;;5051827;28;19950;-71
2023/03/24 10:17:25;;;;;;;;;;;15.60;99.90;;;;;;5054495;28;19909;-71
2023/03/24 10:19:54;;;;;;;;;;;15.60;99.90;;;;;;5042986;28;19995;-71
2023/03/24 10:22:26;;;;;;;;;;;15.50;99.90;;;;;;5054494;28;19909;-71
2023/03/24 10:24:57;;;;;;;;;;;15.40;99.90;;;;;;5054545;28;20379;-71
2023/03/24 10:27:30;;;;;;;;;;;15.40;99.90;;;;;;5053097;28;19920;-71
2023/03/24 10:30:10;;;;;;;;;;;15.30;99.90;;;;;;5054355;28;19953;-71
2023/03/24 10:32:36;;;;;;;;;;;15.30;99.90;;;;;;5054084;28;19909;-71
2023/03/24 10:35:08;;;;;;;;;;;15.20;99.90;;;;;;5054555;28;19916;-71
2023/03/24 10:37:34;;;;;;;;;;;15.30;99.90;;;;;;5054193;28;19919;-71
2023/03/24 10:40:00;;;;;;;;;;;15.20;99.90;;;;;;5052565;28;19912;-71
2023/03/24 10:42:29;;;;;;;;;;;15.30;99.90;;;;;;5053390;28;19909;-70
2023/03/24 10:44:55;;;;;;;;;;;15.40;99.90;;;;;;5053843;28;20440;-71
2023/03/24 10:47:26;;;;;;;;;;;15.30;99.90;;;;;;5052741;28;19954;-71
2023/03/24 10:49:53;;;;;;;;;;;15.30;99.90;;;;;;5052015;28;19908;-71
2023/03/24 10:52:19;;;;;;;;;;;15.30;99.90;;;;;;5052213;28;19909;-70
2023/03/24 10:54:57;;;;;;;;;;;15.30;99.90;;;;;;5053512;28;20290;-71
2023/03/24 10:57:23;;;;;;;;;;;15.40;99.90;;;;;;5053776;28;19923;-71
2023/03/24 10:59:54;;;;;;;;;;;15.50;99.90;;;;;;5053672;28;19959;-71
2023/03/24 11:02:30;;;;;;;;;;;15.50;99.90;;;;;;5053127;28;19920;-71
2023/03/24 11:04:57;;;;;;;;;;;15.60;99.90;;;;;;5053150;28;19962;-71
2023/03/24 11:07:28;;;;;;;;;;;15.60;99.90;;;;;;5052266;28;19916;-71
2023/03/24 11:09:59;;;;;;;;;;;15.60;99.90;;;;;;5053172;28;19919;-72
2023/03/24 11:12:28;;;;;;;;;;;15.60;99.90;;;;;;5053081;28;19999;-71
2023/03/24 11:15:09;;;;;;;;;;;15.60;99.90;;;;;;5053466;28;19955;-72
2023/03/24 11:17:35;;;;;;;;;;;15.70;99.90;;;;;;5053497;28;19972;-71
2023/03/24 11:20:04;;;;;;;;;;;15.60;99.90;;;;;;5052550;28;19940;-70
2023/03/24 11:22:30;;;;;;;;;;;15.60;99.90;;;;;;5052099;28;19919;-71
2023/03/24 11:24:56;;;;;;;;;;;15.60;99.90;;;;;;5052535;28;19908;-71
2023/03/24 11:27:22;;;;;;;;;;;15.70;99.90;;;;;;5052214;28;19909;-71
2023/03/24 11:29:49;;;;;;;;;;;15.80;99.90;;;;;;5051113;28;19916;-71
2023/03/24 11:32:21;;;;;;;;;;;15.80;99.90;;;;;;5052831;28;19913;-71
2023/03/24 11:34:50;;;;;;;;;;;15.80;99.90;;;;;;5051624;28;19913;-71
2023/03/24 11:37:21;;;;;;;;;;;15.80;99.90;;;;;;5053023;28;20302;-71
2023/03/24 11:40:14;;;;;;;;;;;15.80;99.90;;;;;;5053080;28;19909;-71
2023/03/24 11:42:42;;;;;;;;;;;15.80;99.90;;;;;;5052210;28;19913;-71
2023/03/24 11:45:26;;;;;;;;;;;15.80;99.90;;;;;;5053255;28;19936;-71
2023/03/24 11:47:55;;;;;;;;;;;15.80;99.90;;;;;;5052887;28;19909;-71
2023/03/24 11:50:29;;;;;;;;;;;15.80;99.90;;;;;;5052947;28;19939;-71
2023/03/24 11:52:58;;;;;;;;;;;15.90;99.90;;;;;;5052509;28;19935;-71
2023/03/24 11:55:36;;;;;;;;;;;15.90;99.90;;;;;;5051807;28;19916;-71
2023/03/24 11:58:04;;;;;;;;;;;15.90;99.90;;;;;;5052777;28;19923;-71
2023/03/24 12:00:36;;;;;;;;;;;16.00;99.90;;;;;;5052669;28;19935;-71
2023/03/24 12:03:20;;;;;;;;;;;16.00;99.90;;;;;;5052453;28;20413;-71
2023/03/24 12:06:05;;;;;;;;;;;16.10;99.90;;;;;;5052169;28;19940;-71
2023/03/24 12:08:38;;;;;;;;;;;16.10;99.90;;;;;;5053051;28;19975;-71
2023/03/24 12:11:12;;;;;;;;;;;16.10;99.90;;;;;;5052610;28;19985;-71
2023/03/24 12:13:40;;;;;;;;;;;15.90;99.90;;;;;;5052563;28;19909;-71
2023/03/24 12:16:25;;;;;;;;;;;16.00;99.90;;;;;;5052883;28;19913;-71
2023/03/24 12:18:56;;;;;;;;;;;15.90;99.90;;;;;;5052548;28;20327;-71
2023/03/24 12:21:23;;;;;;;;;;;15.70;99.90;;;;;;5052577;28;19908;-71
2023/03/24 12:23:58;;;;;;;;;;;15.80;99.90;;;;;;5051849;28;19923;-71
2023/03/24 12:26:28;;;;;;;;;;;15.90;99.90;;;;;;5055677;28;19913;-71
2023/03/24 12:29:14;;;;;;;;;;;15.90;99.90;;;;;;5056649;28;20003;-71
2023/03/24 12:32:06;;;;;;;;;;;15.80;99.90;;;;;;5051228;28;19978;-71
2023/03/24 12:34:51;;;;;;;;;;;15.80;99.90;;;;;;5055306;28;19916;-70
2023/03/24 12:37:23;;;;;;;;;;;15.80;99.90;;;;;;5056214;28;19916;-71
2023/03/24 12:39:55;;;;;;;;;;;15.80;99.90;;;;;;5057016;28;19909;-71
2023/03/24 12:42:22;;;;;;;;;;;15.90;99.90;;;;;;5056193;28;20416;-71
2023/03/24 12:45:06;;;;;;;;;;;16.00;99.90;;;;;;5056477;28;20359;-71
2023/03/24 12:47:38;;;;;;;;;;;16.10;99.90;;;;;;5055898;28;20374;-71
2023/03/24 12:50:22;;;;;;;;;;;16.00;99.90;;;;;;5056024;28;19908;-71
2023/03/24 12:52:50;;;;;;;;;;;16.10;99.90;;;;;;5055955;28;20044;-71
2023/03/24 12:55:32;;;;;;;;;;;15.90;99.90;;;;;;5055774;28;19916;-71
2023/03/24 12:58:01;;;;;;;;;;;15.80;99.90;;;;;;5056163;28;20320;-71
2023/03/24 13:00:32;;;;;;;;;;;15.80;99.90;;;;;;5055683;28;19921;-71
2023/03/24 13:03:00;;;;;;;;;;;15.70;99.90;;;;;;5055606;28;20410;-71
2023/03/24 13:05:30;;;;;;;;;;;15.70;99.90;;;;;;5055857;28;19908;-71
2023/03/24 13:07:58;;;;;;;;;;;15.60;99.90;;;;;;5055766;28;19909;-71
2023/03/24 13:10:28;;;;;;;;;;;15.60;99.90;;;;;;5055661;28;19971;-70
2023/03/24 13:12:57;;;;;;;;;;;15.60;99.90;;;;;;5055756;28;20004;-71
2023/03/24 13:15:25;;;;;;;;;;;15.60;99.90;;;;;;5055861;28;19909;-70
2023/03/24 13:18:09;;;;;;;;;;;15.50;99.90;;;;;;5055944;28;19916;-71
2023/03/24 13:20:35;;;;;;;;;;;15.30;99.90;;;;;;5054913;28;19947;-71
2023/03/24 13:23:17;;;;;;;;;;;15.30;99.90;;;;;;5055072;28;19917;-71
2023/03/24 13:25:52;;;;;;;;;;;15.30;99.90;;;;;;5053589;28;19945;-71
2023/03/24 13:28:24;;;;;;;;;;;15.30;99.90;;;;;;5055372;28;19913;-71
2023/03/24 13:30:50;;;;;;;;;;;15.30;99.90;;;;;;5054766;28;19909;-71
2023/03/24 13:33:19;;;;;;;;;;;15.40;99.90;;;;;;5055375;28;19975;-71
2023/03/24 13:36:03;;;;;;;;;;;15.50;99.90;;;;;;5054834;28;19966;-71
2023/03/24 13:38:48;;;;;;;;;;;15.70;99.90;;;;;;5055151;28;19980;-71
2023/03/24 13:41:17;;;;;;;;;;;15.90;99.90;;;;;;5054745;28;19909;-71
2023/03/24 13:43:47;;;;;;;;;;;16.00;99.90;;;;;;5055031;28;19913;-71
2023/03/24 13:46:13;;;;;;;;;;;16.10;99.90;;;;;;5054861;28;19956;-71
2023/03/24 13:48:41;;;;;;;;;;;16.10;99.90;;;;;;5054407;28;20424;-71
2023/03/24 13:51:16;;;;;;;;;;;16.20;99.90;;;;;;5054594;28;19909;-72
2023/03/24 13:53:45;;;;;;;;;;;16.30;99.90;;;;;;5055027;28;19924;-71
2023/03/24 13:56:19;;;;;;;;;;;16.60;99.90;;;;;;5054393;28;19909;-71
2023/03/24 13:58:47;;;;;;;;;;;16.70;99.90;;;;;;5053537;28;20322;-71
2023/03/24 14:01:17;;;;;;;;;;;16.80;99.90;;;;;;5052697;28;19916;-71
2023/03/24 14:03:44;;;;;;;;;;;16.90;99.90;;;;;;5054740;28;20012;-71
2023/03/24 14:06:13;;;;;;;;;;;16.90;99.90;;;;;;5054732;28;19909;-72
2023/03/24 14:08:42;;;;;;;;;;;16.90;99.90;;;;;;5055322;28;19943;-71
2023/03/24 14:11:26;;;;;;;;;;;16.80;99.90;;;;;;5055425;28;19909;-71
2023/03/24 14:13:52;;;;;;;;;;;16.80;99.90;;;;;;5054137;28;19909;-71
2023/03/24 14:16:41;;;;;;;;;;;16.90;99.90;;;;;;5055198;28;19909;-71
2023/03/24 14:19:18;;;;;;;;;;;16.80;99.90;;;;;;5051098;28;20422;-71
2023/03/24 14:21:44;;;;;;;;;;;16.80;99.90;;;;;;5053811;28;20005;-71
2023/03/24 14:24:36;;;;;;;;;;;16.80;99.90;;;;;;5054327;28;19917;-71
2023/03/24 14:27:22;;;;;;;;;;;16.80;99.90;;;;;;5053486;28;20362;-71
2023/03/24 14:29:51;;;;;;;;;;;16.80;99.90;;;;;;5055520;28;19928;-71